createdAt,value
2022-08-15T00:02:34.258Z,23.22
2022-08-15T00:07:48.191Z,23.18
2022-08-15T00:12:50.760Z,23.16
2022-08-15T00:17:52.403Z,23.18
2022-08-15T00:22:54.994Z,23.15
2022-08-15T00:27:56.664Z,23.09
2022-08-15T00:33:18.549Z,23.04
2022-08-15T00:38:28.057Z,23.01
2022-08-15T00:43:42.336Z,22.95
2022-08-15T00:48:51.300Z,22.95
2022-08-15T00:53:56.654Z,22.91
2022-08-15T00:59:05.700Z,22.88
2022-08-15T01:04:18.064Z,22.82
2022-08-15T01:09:21.167Z,22.78
2022-08-15T01:14:56.402Z,22.69
2022-08-15T01:19:58.479Z,22.60
2022-08-15T01:25:16.508Z,22.51
2022-08-15T01:31:01.753Z,22.36
2022-08-15T01:35:53.062Z,22.14
2022-08-15T01:41:26.488Z,22.07
2022-08-15T01:46:42.364Z,22.05
2022-08-15T01:51:44.050Z,21.99
2022-08-15T01:56:48.794Z,21.87
2022-08-15T02:01:58.392Z,21.80
2022-08-15T02:07:09.974Z,21.71
2022-08-15T02:13:03.010Z,21.62
2022-08-15T02:17:44.215Z,21.63
2022-08-15T02:22:47.613Z,21.62
2022-08-15T02:27:52.607Z,21.52
2022-08-15T02:32:55.251Z,21.44
2022-08-15T02:38:05.184Z,21.32
2022-08-15T02:43:19.821Z,21.27
2022-08-15T02:48:27.923Z,21.20
2022-08-15T02:53:43.933Z,21.21
2022-08-15T02:58:49.939Z,21.14
2022-08-15T03:03:52.533Z,21.12
2022-08-15T03:09:01.915Z,21.07
2022-08-15T03:14:08.541Z,20.98
2022-08-15T03:19:31.379Z,20.91
2022-08-15T03:24:34.220Z,20.86
2022-08-15T03:29:50.541Z,20.82
2022-08-15T03:34:56.071Z,20.70
2022-08-15T03:39:58.253Z,20.64
2022-08-15T03:45:05.800Z,20.62
2022-08-15T03:50:23.171Z,20.61
2022-08-15T03:55:35.696Z,20.54
2022-08-15T04:00:52.863Z,20.47
2022-08-15T04:05:59.874Z,20.47
2022-08-15T04:11:04.432Z,20.44
2022-08-15T04:17:03.298Z,20.41
2022-08-15T04:21:30.418Z,20.38
2022-08-15T04:26:32.229Z,20.41
2022-08-15T04:31:37.146Z,20.33
2022-08-15T04:36:39.143Z,20.32
2022-08-15T04:41:50.003Z,20.33
2022-08-15T04:46:53.998Z,20.41
2022-08-15T04:51:56.552Z,20.41
2022-08-15T04:56:59.755Z,20.37
2022-08-15T05:02:49.529Z,20.44
2022-08-15T05:07:27.539Z,20.42
2022-08-15T05:12:33.353Z,20.45
2022-08-15T05:17:55.343Z,20.52
2022-08-15T05:23:07.170Z,20.61
2022-08-15T05:28:31.413Z,20.67
2022-08-15T05:33:56.629Z,20.69
2022-08-15T05:39:00.234Z,20.70
2022-08-15T05:44:38.897Z,20.75
2022-08-15T05:50:28.573Z,20.96
2022-08-15T05:55:47.056Z,21.07
2022-08-15T06:00:53.576Z,21.16
2022-08-15T06:06:00.335Z,21.23
2022-08-15T06:11:13.591Z,21.31
2022-08-15T06:16:41.164Z,21.35
2022-08-15T06:22:26.091Z,21.47
2022-08-15T06:28:01.798Z,21.54
2022-08-15T06:33:22.577Z,21.67
2022-08-15T06:38:46.332Z,21.82
2022-08-15T06:43:51.560Z,21.99
2022-08-15T06:49:05.693Z,22.16
2022-08-15T06:54:37.038Z,22.35
2022-08-15T07:00:39.155Z,22.55
2022-08-15T07:05:53.366Z,22.81
2022-08-15T07:11:04.575Z,23.03
2022-08-15T07:16:19.455Z,23.26
2022-08-15T07:21:52.238Z,23.49
2022-08-15T07:26:57.124Z,23.72
2022-08-15T07:32:44.187Z,23.84
2022-08-15T07:37:49.363Z,24.00
2022-08-15T07:43:00.013Z,24.18
2022-08-15T07:48:21.882Z,24.40
2022-08-15T07:53:34.455Z,24.61
2022-08-15T07:58:40.666Z,24.73
2022-08-15T08:03:48.281Z,24.97
2022-08-15T08:09:05.693Z,25.12
2022-08-15T08:14:41.832Z,25.26
2022-08-15T08:20:02.315Z,25.42
2022-08-15T08:25:15.689Z,25.60
2022-08-15T08:30:44.450Z,25.70
2022-08-15T08:35:58.323Z,25.79
2022-08-15T08:41:30.275Z,25.89
2022-08-15T08:47:18.264Z,26.01
2022-08-15T08:52:40.623Z,26.15
2022-08-15T08:57:52.464Z,26.38
2022-08-15T09:03:22.155Z,26.57
2022-08-15T09:08:30.012Z,26.69
2022-08-15T09:13:37.680Z,26.78
2022-08-15T09:18:48.780Z,26.94
2022-08-15T09:23:51.857Z,27.20
2022-08-15T09:29:05.900Z,27.45
2022-08-15T09:34:45.702Z,27.49
2022-08-15T09:40:02.999Z,27.57
2022-08-15T09:45:46.996Z,27.73
2022-08-15T09:51:14.023Z,27.88
2022-08-15T09:56:19.591Z,28.09
2022-08-15T10:01:38.414Z,28.21
2022-08-15T10:07:02.240Z,28.25
2022-08-15T10:12:24.142Z,28.40
2022-08-15T10:17:39.088Z,28.57
2022-08-15T10:23:01.907Z,28.73
2022-08-15T10:28:37.082Z,28.89
2022-08-15T10:33:37.789Z,28.92
2022-08-15T10:38:40.154Z,29.08
2022-08-15T10:44:34.479Z,29.28
2022-08-15T10:50:04.625Z,29.37
2022-08-15T10:55:57.816Z,29.49
2022-08-15T11:01:25.198Z,29.88
2022-08-15T11:06:29.073Z,30.04
2022-08-15T11:11:33.520Z,30.03
2022-08-15T11:16:37.850Z,30.21
2022-08-15T11:21:41.387Z,30.29
2022-08-15T11:26:46.589Z,30.23
2022-08-15T11:32:01.051Z,30.15
2022-08-15T11:37:32.235Z,30.08
2022-08-15T11:42:58.235Z,30.09
2022-08-15T11:48:05.536Z,30.20
2022-08-15T11:53:09.957Z,30.77
2022-08-15T11:58:14.935Z,31.20
2022-08-15T12:04:42.244Z,31.95
2022-08-15T12:08:55.792Z,31.83
2022-08-15T12:14:24.695Z,31.71
2022-08-15T12:20:25.013Z,32.51
2022-08-15T12:24:57.781Z,32.51
2022-08-15T12:29:59.493Z,32.45
2022-08-15T12:35:01.252Z,32.26
2022-08-15T12:40:59.437Z,32.05
2022-08-15T12:45:36.134Z,31.91
2022-08-15T12:50:40.381Z,31.73
2022-08-15T12:55:43.179Z,31.32
2022-08-15T13:01:02.178Z,30.67
2022-08-15T13:06:31.789Z,30.25
2022-08-15T13:11:38.178Z,30.15
2022-08-15T13:17:10.095Z,29.94
2022-08-15T13:22:32.509Z,29.90
2022-08-15T13:27:35.394Z,29.96
2022-08-15T13:32:39.370Z,29.93
2022-08-15T13:38:01.020Z,29.75
2022-08-15T13:43:12.151Z,29.90
2022-08-15T13:48:17.956Z,29.91
2022-08-15T13:53:19.700Z,29.49
2022-08-15T13:58:24.027Z,29.25
2022-08-15T14:03:32.489Z,29.14
2022-08-15T14:09:17.705Z,28.89
2022-08-15T14:13:58.201Z,28.37
2022-08-15T14:19:01.857Z,27.89
2022-08-15T14:24:14.234Z,27.33
2022-08-15T14:34:57.431Z,25.90
2022-08-15T14:40:00.944Z,25.02
2022-08-15T14:45:02.729Z,24.42
2022-08-15T14:51:19.130Z,23.82
2022-08-15T14:55:27.993Z,23.39
2022-08-15T15:00:32.472Z,22.97
2022-08-15T15:06:06.175Z,22.58
2022-08-15T15:10:57.199Z,22.28
2022-08-15T15:16:41.697Z,21.92
2022-08-15T15:21:20.528Z,21.87
2022-08-15T15:26:36.890Z,21.72
2022-08-15T15:31:40.838Z,21.44
2022-08-15T15:36:45.445Z,21.52
2022-08-15T15:41:48.427Z,21.50
2022-08-15T15:46:51.897Z,21.29
2022-08-15T15:51:54.654Z,21.31
2022-08-15T15:56:56.855Z,21.48
2022-08-15T16:02:44.284Z,21.51
2022-08-15T16:07:24.192Z,21.57
2022-08-15T16:13:00.191Z,21.71
2022-08-15T16:17:56.662Z,21.94
2022-08-15T16:23:06.862Z,22.02
2022-08-15T16:28:45.113Z,22.16
2022-08-15T16:34:00.749Z,22.31
2022-08-15T16:39:27.706Z,22.49
2022-08-15T16:44:35.851Z,22.50
2022-08-15T16:50:06.505Z,22.51
2022-08-15T16:55:55.421Z,22.51
2022-08-15T17:01:04.339Z,22.47
2022-08-15T17:06:24.857Z,22.40
2022-08-15T17:11:37.511Z,22.78
2022-08-15T17:16:49.276Z,22.83
2022-08-15T17:21:56.400Z,22.83
2022-08-15T17:27:29.004Z,22.81
2022-08-15T17:32:30.388Z,22.71
2022-08-15T17:37:44.198Z,22.76
2022-08-15T17:42:46.407Z,22.77
2022-08-15T17:47:53.347Z,22.64
2022-08-15T17:53:18.682Z,22.39
2022-08-15T17:58:47.443Z,22.33
2022-08-15T18:03:49.106Z,22.29
2022-08-15T18:08:54.944Z,22.26
2022-08-15T18:13:58.386Z,22.24
2022-08-15T18:19:19.011Z,22.29
2022-08-15T18:24:41.433Z,22.29
2022-08-15T18:29:57.161Z,22.26
2022-08-15T18:35:05.935Z,22.36
2022-08-15T18:40:52.405Z,22.37
2022-08-15T18:45:56.127Z,22.15
2022-08-15T18:50:57.808Z,22.20
2022-08-15T18:56:00.079Z,22.20
2022-08-15T19:01:28.485Z,22.24
2022-08-15T19:06:50.554Z,22.19
2022-08-15T19:11:54.903Z,22.20
2022-08-15T19:17:00.654Z,22.24
2022-08-15T19:22:20.456Z,22.07
2022-08-15T19:27:55.997Z,22.09
2022-08-15T19:33:19.994Z,22.00
2022-08-15T19:38:40.750Z,21.94
2022-08-15T19:43:56.276Z,21.87
2022-08-15T19:50:05.329Z,21.83
2022-08-15T19:55:42.306Z,21.83
2022-08-15T20:00:50.586Z,21.86
2022-08-15T20:06:08.517Z,21.66
2022-08-15T20:11:26.788Z,21.62
2022-08-15T20:16:56.726Z,21.63
2022-08-15T20:22:03.589Z,21.47
2022-08-15T20:27:12.983Z,21.42
2022-08-15T20:32:36.083Z,21.48
2022-08-15T20:37:55.403Z,21.31
2022-08-15T20:43:11.615Z,21.29
2022-08-15T20:48:52.809Z,21.23
2022-08-15T20:53:55.379Z,21.19
2022-08-15T20:59:01.849Z,21.20
2022-08-15T21:04:28.455Z,21.23
2022-08-15T21:09:58.507Z,21.14
2022-08-15T21:15:42.334Z,21.34
2022-08-15T21:20:49.530Z,21.06
2022-08-15T21:25:58.719Z,21.12
2022-08-15T21:31:24.745Z,21.24
2022-08-15T21:36:35.259Z,21.03
2022-08-15T21:41:38.012Z,21.12
2022-08-15T21:46:57.651Z,21.05
2022-08-15T21:52:41.784Z,21.03
2022-08-15T21:57:56.184Z,21.01
2022-08-15T22:03:35.967Z,20.99
2022-08-15T22:08:43.116Z,20.97
2022-08-15T22:13:53.808Z,21.00
2022-08-15T22:18:58.492Z,21.04
2022-08-15T22:24:00.854Z,20.99
2022-08-15T22:29:31.576Z,20.97
2022-08-15T22:34:33.692Z,20.92
2022-08-15T22:39:43.152Z,20.91
2022-08-15T22:44:46.964Z,20.89
2022-08-15T22:49:54.902Z,20.85
2022-08-15T22:54:58.821Z,20.89
2022-08-15T23:00:01.912Z,20.87
2022-08-15T23:05:12.534Z,20.99
2022-08-15T23:10:26.257Z,20.99
2022-08-15T23:15:32.186Z,20.91
2022-08-15T23:20:38.461Z,20.87
2022-08-15T23:25:48.902Z,20.83
2022-08-15T23:30:52.407Z,20.81
2022-08-15T23:35:56.603Z,20.98
2022-08-15T23:41:01.599Z,20.95
2022-08-15T23:46:36.910Z,20.74
2022-08-15T23:51:24.936Z,20.80
2022-08-15T23:56:31.719Z,20.88
